Terminal Aerodrome Forecast
Issued by NWS

Home | Current Version | Previous Version | Text Only | Print | Product List | Glossary On
Versions: 1 2 3 4 5 6 7 8 9 10 11 12 13 14 15 16 17 18 19 20 21 22 23 24 25 26 27 28 29 30 31 32 33 34 35 36 37 38 39 40 41 42 43 44 45 46 47 48 49 50
217
FTUS43 KMKX 250226 AAB
TAFENW
TAF AMD
KENW 250226Z 2502/2524 30009KT 4SM -FZDZSN BR OVC007
     FM250800 31012G21KT 1 1/2SM -SN BR OVC008
     FM251100 30014G22KT 2SM -SHSN BR OVC020
     FM251300 30015G23KT 3SM BR VCSH OVC015
     FM251600 29017G25KT P6SM BKN035=

USA.gov is the U.S. government's official web portal to all federal, state and local government web resources and services.